Time;durP1;ratioP1;P1;durP2;ratioP2;P2;SDS_P1;SDS_P2;PMS_P1;PMS_P2;Temp;Humidity;BMP_temperature;BMP_pressure;BME280_temperature;BME280_humidity;BME280_pressure;Samples;Min_cycle;Max_cycle;Signal;HPM_P1;HPM_P2
2022/04/05 00:00:49;;;;;;;6.00;4.30;;;7.70;99.90;;;;;;5014355;28;20443;-79
2022/04/05 00:03:14;;;;;;;7.07;4.60;;;7.80;99.90;;;;;;5014591;28;20184;-80
2022/04/05 00:05:40;;;;;;;6.83;4.50;;;7.80;99.90;;;;;;5015886;28;20419;-79
2022/04/05 00:08:05;;;;;;;5.40;3.97;;;7.80;99.90;;;;;;5015059;28;20188;-81
2022/04/05 00:10:31;;;;;;;8.23;4.50;;;7.90;99.90;;;;;;5015454;28;20176;-81
2022/04/05 00:12:58;;;;;;;7.57;4.47;;;7.90;99.90;;;;;;5015688;28;20959;-80
2022/04/05 00:15:24;;;;;;;7.00;4.90;;;7.90;99.90;;;;;;5014206;28;20191;-79
2022/04/05 00:17:50;;;;;;;5.77;3.87;;;7.90;99.90;;;;;;5013488;28;20466;-79
2022/04/05 00:20:15;;;;;;;7.00;5.23;;;7.90;99.90;;;;;;5014008;28;20423;-79
2022/04/05 00:22:41;;;;;;;7.33;5.10;;;8.00;99.90;;;;;;5013953;28;20467;-79
2022/04/05 00:25:07;;;;;;;8.67;6.07;;;8.00;99.90;;;;;;5013893;28;20207;-81
2022/04/05 00:27:33;;;;;;;8.63;5.50;;;8.00;99.90;;;;;;5013906;28;20191;-79
2022/04/05 00:29:59;;;;;;;7.13;4.87;;;8.00;99.90;;;;;;5013942;28;20411;-79
2022/04/05 00:32:26;;;;;;;7.50;5.07;;;8.00;99.90;;;;;;5013867;28;20579;-81
2022/04/05 00:34:51;;;;;;;7.40;5.20;;;8.00;99.90;;;;;;5013622;28;20459;-80
2022/04/05 00:37:17;;;;;;;7.07;5.10;;;8.00;99.90;;;;;;5012965;28;20498;-80
2022/04/05 00:39:43;;;;;;;7.73;5.40;;;8.10;99.90;;;;;;5013656;28;20201;-79
2022/04/05 00:42:10;;;;;;;9.30;5.67;;;8.10;99.90;;;;;;5014406;28;20254;-80
2022/04/05 00:44:36;;;;;;;7.40;5.60;;;8.10;99.90;;;;;;5014907;28;20180;-78
2022/04/05 00:47:17;;;;;;;6.70;4.47;;;8.20;99.90;;;;;;5012672;28;20424;-80
2022/04/05 00:49:44;;;;;;;9.17;6.13;;;8.20;99.90;;;;;;4995153;28;20413;-79
2022/04/05 00:52:10;;;;;;;8.30;5.07;;;8.20;99.90;;;;;;4994699;28;20448;-80
2022/04/05 00:54:37;;;;;;;8.40;4.67;;;8.20;99.90;;;;;;4995058;28;20416;-79
2022/04/05 00:57:08;;;;;;;7.80;4.63;;;8.30;99.90;;;;;;4992834;28;20800;-79
2022/04/05 00:59:35;;;;;;;9.87;5.60;;;8.30;99.90;;;;;;4994912;28;20818;-80
2022/04/05 01:02:02;;;;;;;9.30;5.60;;;8.30;99.90;;;;;;4994541;28;20440;-80
2022/04/05 01:04:29;;;;;;;9.30;6.13;;;8.40;99.90;;;;;;4993771;28;20923;-80
2022/04/05 01:06:54;;;;;;;6.77;4.70;;;8.40;99.90;;;;;;4993832;28;20504;-81
2022/04/05 01:09:21;;;;;;;7.37;4.97;;;8.40;99.90;;;;;;5009676;28;20506;-80
2022/04/05 01:11:46;;;;;;;8.27;5.17;;;8.50;99.90;;;;;;4994473;28;20447;-80
2022/04/05 01:14:12;;;;;;;11.13;6.50;;;8.50;99.90;;;;;;4993213;28;20424;-81
2022/04/05 01:16:41;;;;;;;9.03;5.80;;;8.50;99.90;;;;;;4992610;28;20218;-80
2022/04/05 01:19:08;;;;;;;8.20;5.53;;;8.60;99.90;;;;;;4993092;28;20184;-80
2022/04/05 01:21:37;;;;;;;8.10;5.20;;;8.60;99.90;;;;;;5009178;28;20960;-80
2022/04/05 01:24:10;;;;;;;9.63;6.30;;;8.60;99.90;;;;;;5009210;28;20431;-80
2022/04/05 01:26:48;;;;;;;18.10;6.90;;;8.70;99.90;;;;;;4992305;28;20428;-80
2022/04/05 01:29:15;;;;;;;9.73;6.50;;;8.70;99.90;;;;;;5010327;28;20499;-80
2022/04/05 01:31:48;;;;;;;8.77;5.70;;;8.70;99.90;;;;;;4993626;28;20815;-80
2022/04/05 01:34:17;;;;;;;10.97;7.60;;;8.80;99.90;;;;;;4993740;28;20417;-80
2022/04/05 01:36:45;;;;;;;8.97;6.40;;;8.80;99.90;;;;;;4994219;28;20464;-81
2022/04/05 01:39:11;;;;;;;10.07;7.10;;;8.90;99.90;;;;;;4993004;28;20421;-80
2022/04/05 01:41:37;;;;;;;10.00;7.00;;;8.80;99.90;;;;;;4993477;28;20511;-80
2022/04/05 01:44:05;;;;;;;11.10;7.37;;;8.90;99.90;;;;;;4993483;28;20433;-80
2022/04/05 01:46:34;;;;;;;9.33;5.73;;;8.80;99.90;;;;;;4994107;28;20326;-81
2022/04/05 01:49:00;;;;;;;10.73;7.10;;;8.80;99.90;;;;;;4993440;28;20429;-80
2022/04/05 01:51:25;;;;;;;11.00;7.80;;;8.90;99.90;;;;;;4994401;28;20955;-80
2022/04/05 01:53:51;;;;;;;9.90;7.20;;;8.90;99.90;;;;;;4993626;28;20181;-80
2022/04/05 01:56:16;;;;;;;13.77;8.13;;;8.90;99.90;;;;;;5009450;28;20201;-80
2022/04/05 01:58:42;;;;;;;13.47;7.80;;;8.90;99.90;;;;;;4994093;28;20240;-80
2022/04/05 02:01:08;;;;;;;10.50;7.77;;;9.00;99.90;;;;;;4992809;28;20206;-80
2022/04/05 02:03:33;;;;;;;12.33;7.80;;;9.00;99.90;;;;;;4994434;28;20637;-80
2022/04/05 02:05:59;;;;;;;12.30;8.03;;;9.00;99.90;;;;;;4993149;28;20240;-80
2022/04/05 02:08:25;;;;;;;11.23;7.10;;;9.00;99.90;;;;;;4992563;28;20618;-79
2022/04/05 02:10:50;;;;;;;12.57;8.90;;;9.00;99.90;;;;;;4993579;28;20225;-79
2022/04/05 02:13:16;;;;;;;15.20;8.80;;;9.00;99.90;;;;;;4994433;28;20428;-81
2022/04/05 02:15:42;;;;;;;11.07;7.03;;;9.10;99.90;;;;;;4993120;28;20177;-80
2022/04/05 02:18:07;;;;;;;11.50;7.40;;;9.00;99.90;;;;;;4996849;28;20241;-81
2022/04/05 02:20:33;;;;;;;12.97;7.90;;;9.10;99.90;;;;;;4998948;28;20700;-81
2022/04/05 02:23:00;;;;;;;12.70;7.90;;;9.10;99.90;;;;;;5014037;28;20417;-81
2022/04/05 02:25:26;;;;;;;11.17;6.93;;;9.10;99.90;;;;;;4998237;28;20500;-82
2022/04/05 02:27:52;;;;;;;12.37;8.37;;;9.10;99.90;;;;;;4997878;28;20444;-81
2022/04/05 02:30:18;;;;;;;11.87;8.00;;;9.10;99.90;;;;;;4999442;28;20474;-81
2022/04/05 02:32:44;;;;;;;13.87;7.80;;;9.20;99.90;;;;;;4996932;28;20516;-81
2022/04/05 02:35:11;;;;;;;13.50;7.90;;;9.20;99.90;;;;;;4996727;28;20192;-81
2022/04/05 02:37:37;;;;;;;15.03;9.87;;;9.20;99.90;;;;;;4997689;28;20463;-81
2022/04/05 02:40:04;;;;;;;16.70;9.77;;;9.20;99.90;;;;;;4996276;28;20421;-81
2022/04/05 02:42:30;;;;;;;17.60;9.30;;;9.20;99.90;;;;;;4997955;28;20433;-81
2022/04/05 02:44:55;;;;;;;16.00;10.43;;;9.20;99.90;;;;;;5012546;28;20413;-81
2022/04/05 02:47:22;;;;;;;17.10;10.27;;;9.20;99.90;;;;;;4997500;28;20182;-81
2022/04/05 02:49:48;;;;;;;14.23;8.67;;;9.30;99.90;;;;;;4996049;28;20474;-80
2022/04/05 02:52:15;;;;;;;19.30;9.70;;;9.30;99.90;;;;;;4997543;28;20475;-81
2022/04/05 02:54:43;;;;;;;13.03;8.57;;;9.30;99.90;;;;;;4996797;28;20420;-81
2022/04/05 02:57:09;;;;;;;14.93;9.50;;;9.30;99.90;;;;;;4994424;28;20510;-81
2022/04/05 02:59:35;;;;;;;15.10;9.50;;;9.30;99.90;;;;;;5011905;28;20816;-81
2022/04/05 03:02:00;;;;;;;14.20;9.90;;;9.30;99.90;;;;;;4996683;28;20200;-81
2022/04/05 03:04:26;;;;;;;16.00;9.30;;;9.40;99.90;;;;;;4996790;28;20182;-81
2022/04/05 03:06:51;;;;;;;12.77;8.70;;;9.40;99.90;;;;;;4996429;28;20939;-81
2022/04/05 03:09:17;;;;;;;17.10;9.80;;;9.40;99.90;;;;;;5012076;28;20196;-81
2022/04/05 03:11:43;;;;;;;16.27;9.23;;;9.40;99.90;;;;;;4996565;28;20225;-81
2022/04/05 03:14:10;;;;;;;14.53;8.00;;;9.40;99.90;;;;;;4995387;28;20223;-82
2022/04/05 03:16:37;;;;;;;16.60;9.13;;;9.50;99.90;;;;;;4994569;28;20215;-81
2022/04/05 03:19:07;;;;;;;12.73;7.53;;;9.50;99.90;;;;;;4996656;28;20537;-81
2022/04/05 03:21:33;;;;;;;14.20;8.17;;;9.50;99.90;;;;;;4995078;28;21002;-81
2022/04/05 03:23:59;;;;;;;15.30;9.30;;;9.50;99.90;;;;;;4995454;28;20436;-81
2022/04/05 03:26:24;;;;;;;13.33;9.20;;;9.50;99.90;;;;;;5011008;28;20217;-81
2022/04/05 03:28:50;;;;;;;16.07;9.37;;;9.50;99.90;;;;;;5010646;28;20236;-82
2022/04/05 03:31:15;;;;;;;12.97;7.70;;;9.60;99.90;;;;;;4996310;28;20193;-81
2022/04/05 03:33:41;;;;;;;15.27;7.87;;;9.60;99.90;;;;;;4995931;28;20184;-81
2022/04/05 03:36:07;;;;;;;11.33;7.00;;;9.50;99.90;;;;;;4995319;28;20177;-81
2022/04/05 03:38:32;;;;;;;13.73;8.30;;;9.50;99.90;;;;;;4994242;28;20206;-81
2022/04/05 03:40:58;;;;;;;11.87;7.60;;;9.50;99.90;;;;;;4995852;28;20194;-80
2022/04/05 03:43:23;;;;;;;11.50;6.80;;;9.50;99.90;;;;;;4996205;28;20182;-81
2022/04/05 03:45:49;;;;;;;10.50;5.80;;;9.50;99.90;;;;;;4995765;28;20273;-80
2022/04/05 03:48:15;;;;;;;12.53;7.23;;;9.50;99.90;;;;;;5010072;28;20190;-81
2022/04/05 03:50:42;;;;;;;12.50;7.63;;;9.50;99.90;;;;;;4995856;28;20445;-81
2022/04/05 03:53:08;;;;;;;15.13;8.50;;;9.50;99.90;;;;;;4995303;28;20793;-81
2022/04/05 03:55:34;;;;;;;11.67;7.43;;;9.50;99.90;;;;;;4995389;28;20423;-81
2022/04/05 03:57:59;;;;;;;14.90;8.77;;;9.60;99.90;;;;;;4993366;28;20479;-81
2022/04/05 04:00:25;;;;;;;11.70;7.10;;;9.60;99.90;;;;;;5010477;28;20183;-81
2022/04/05 04:02:51;;;;;;;14.70;8.20;;;9.60;99.90;;;;;;4994867;28;20181;-81
2022/04/05 04:05:20;;;;;;;23.20;8.90;;;9.60;99.90;;;;;;5014248;28;20500;-81
2022/04/05 04:07:46;;;;;;;16.10;8.87;;;9.60;99.90;;;;;;5013897;28;20216;-81
2022/04/05 04:10:12;;;;;;;12.67;7.80;;;9.60;99.90;;;;;;5014335;28;20911;-81
2022/04/05 04:12:38;;;;;;;11.70;7.63;;;9.50;99.90;;;;;;4999392;28;20523;-82
2022/04/05 04:15:04;;;;;;;18.30;10.47;;;9.60;99.90;;;;;;4998696;28;20238;-83
2022/04/05 04:17:29;;;;;;;15.80;9.40;;;9.60;99.90;;;;;;4998238;28;20206;-81
2022/04/05 04:19:55;;;;;;;14.80;8.77;;;9.60;99.90;;;;;;4998428;28;20524;-81
2022/04/05 04:22:20;;;;;;;14.77;8.03;;;9.70;99.90;;;;;;4997132;28;20731;-81
2022/04/05 04:24:47;;;;;;;17.70;8.77;;;9.70;99.90;;;;;;4998003;28;20182;-81
2022/04/05 04:27:13;;;;;;;13.53;8.07;;;9.70;99.90;;;;;;5012649;28;20242;-81
2022/04/05 04:29:38;;;;;;;16.60;8.40;;;9.70;99.90;;;;;;4998155;28;20837;-81
2022/04/05 04:32:04;;;;;;;14.70;9.47;;;9.70;99.90;;;;;;4996769;28;20245;-82
2022/04/05 04:34:30;;;;;;;14.40;9.13;;;9.70;99.90;;;;;;5013003;28;20277;-81
2022/04/05 04:36:57;;;;;;;17.57;9.67;;;9.70;99.90;;;;;;5000205;28;21095;-81
2022/04/05 04:39:23;;;;;;;16.90;9.90;;;9.80;99.90;;;;;;5013599;28;20465;-81
2022/04/05 04:41:49;;;;;;;16.93;10.13;;;9.80;99.90;;;;;;5016282;28;20892;-81
2022/04/05 04:44:15;;;;;;;19.20;10.70;;;9.80;99.90;;;;;;5016340;28;20945;-81
2022/04/05 04:46:40;;;;;;;18.27;9.57;;;9.80;99.90;;;;;;5014832;28;20424;-81
2022/04/05 04:49:06;;;;;;;15.60;10.07;;;9.90;99.90;;;;;;5013700;28;20181;-80
2022/04/05 04:51:31;;;;;;;20.03;10.40;;;9.80;99.90;;;;;;5013510;28;20204;-81
2022/04/05 04:53:57;;;;;;;21.70;12.30;;;9.90;99.90;;;;;;5013323;28;20183;-81
2022/04/05 04:56:23;;;;;;;16.60;9.50;;;9.90;99.90;;;;;;5013559;28;20181;-81
2022/04/05 04:58:48;;;;;;;20.87;10.97;;;9.90;99.90;;;;;;5013049;28;20247;-81
2022/04/05 05:01:14;;;;;;;20.30;10.23;;;9.90;99.90;;;;;;5013453;28;20201;-81
2022/04/05 05:03:40;;;;;;;17.97;11.23;;;9.90;99.90;;;;;;5013308;28;20191;-82
2022/04/05 05:06:05;;;;;;;18.17;10.57;;;9.90;99.90;;;;;;5014399;28;20181;-80
2022/04/05 05:08:32;;;;;;;23.73;12.57;;;9.90;99.90;;;;;;5013889;28;20208;-81
2022/04/05 05:10:58;;;;;;;19.70;10.83;;;9.90;99.90;;;;;;5013167;28;20536;-81
2022/04/05 05:13:23;;;;;;;16.90;9.13;;;9.90;99.90;;;;;;5012926;28;20503;-81
2022/04/05 05:15:49;;;;;;;17.13;9.93;;;9.90;99.90;;;;;;5013233;28;20191;-81
2022/04/05 05:18:16;;;;;;;18.67;10.43;;;9.90;99.90;;;;;;5012310;28;20239;-81
2022/04/05 05:20:42;;;;;;;15.13;9.17;;;10.00;99.90;;;;;;5012955;28;20193;-81
2022/04/05 05:23:07;;;;;;;18.53;10.40;;;10.00;99.90;;;;;;5037442;23;20530;-86
2022/04/05 05:25:33;;;;;;;18.63;9.47;;;10.10;99.90;;;;;;5012459;28;20420;-86
2022/04/05 05:27:59;;;;;;;18.43;9.83;;;10.10;99.90;;;;;;5012707;28;20626;-86
2022/04/05 05:30:24;;;;;;;21.63;12.70;;;10.10;99.90;;;;;;5013797;28;20190;-86
2022/04/05 05:32:50;;;;;;;17.80;9.60;;;10.00;99.90;;;;;;5012763;28;20231;-86
2022/04/05 05:35:18;;;;;;;19.00;10.80;;;10.00;99.90;;;;;;5012661;28;20189;-86
2022/04/05 05:37:44;;;;;;;14.57;8.67;;;10.10;99.90;;;;;;5012586;28;20470;-86
2022/04/05 05:40:12;;;;;;;18.97;9.77;;;10.10;99.90;;;;;;5012655;28;20420;-86
2022/04/05 05:43:01;;;;;;;20.77;10.03;;;10.00;99.90;;;;;;5012674;28;20451;-86
2022/04/05 05:45:28;;;;;;;18.20;10.60;;;10.10;99.90;;;;;;5013728;28;20761;-86
2022/04/05 05:47:54;;;;;;;19.63;11.63;;;10.00;99.90;;;;;;5012020;28;20806;-86
2022/04/05 05:50:21;;;;;;;15.90;9.20;;;10.00;99.90;;;;;;5012295;28;20507;-87
2022/04/05 05:52:47;;;;;;;19.53;8.80;;;10.00;99.90;;;;;;5013319;28;20434;-86
2022/04/05 05:55:15;;;;;;;22.87;10.50;;;10.00;99.90;;;;;;5012313;28;20431;-86
2022/04/05 05:57:41;;;;;;;17.13;10.40;;;10.10;99.90;;;;;;5011663;28;20586;-86
2022/04/05 06:00:17;;;;;;;19.40;11.10;;;10.10;99.90;;;;;;5013509;28;20970;-86
2022/04/05 06:02:44;;;;;;;19.90;10.40;;;10.10;99.90;;;;;;5012200;28;20449;-86
2022/04/05 06:05:09;;;;;;;20.20;10.00;;;10.10;99.90;;;;;;5012132;28;20432;-86
2022/04/05 06:07:35;;;;;;;21.83;9.90;;;10.00;99.90;;;;;;5011410;28;20943;-86
2022/04/05 06:10:03;;;;;;;17.10;10.53;;;10.10;99.90;;;;;;5013256;28;20643;-86
2022/04/05 06:12:28;;;;;;;18.60;12.17;;;10.00;99.90;;;;;;5011962;28;20462;-86
2022/04/05 06:14:54;;;;;;;23.63;13.10;;;10.00;99.90;;;;;;5011926;28;20931;-86
2022/04/05 06:17:20;;;;;;;17.27;10.63;;;10.10;99.90;;;;;;5011299;28;20209;-86
2022/04/05 06:19:46;;;;;;;22.33;11.77;;;10.10;99.90;;;;;;5012162;28;20675;-86
2022/04/05 06:22:12;;;;;;;22.07;11.90;;;10.10;99.90;;;;;;5011722;28;20431;-86
2022/04/05 06:24:38;;;;;;;18.97;10.30;;;10.10;99.90;;;;;;5011805;28;20445;-86
2022/04/05 06:27:05;;;;;;;18.63;11.97;;;10.10;99.90;;;;;;5010697;28;20426;-87
2022/04/05 06:29:31;;;;;;;17.57;11.10;;;10.20;99.90;;;;;;5012796;28;20474;-86
2022/04/05 06:31:57;;;;;;;20.37;11.40;;;10.20;99.90;;;;;;5011835;28;20938;-86
2022/04/05 06:34:22;;;;;;;19.20;10.47;;;10.30;99.90;;;;;;5011461;28;20973;-86
2022/04/05 06:36:48;;;;;;;17.93;10.83;;;10.30;99.90;;;;;;5012061;28;20180;-86
2022/04/05 06:39:13;;;;;;;17.73;9.83;;;10.20;99.90;;;;;;5011500;28;20267;-86
2022/04/05 06:41:40;;;;;;;18.33;9.73;;;10.30;99.90;;;;;;5011540;28;20674;-86
2022/04/05 06:44:05;;;;;;;15.87;9.37;;;10.20;99.90;;;;;;4997087;28;20205;-86
2022/04/05 06:46:31;;;;;;;13.77;8.60;;;10.20;99.90;;;;;;4992366;28;20419;-86
2022/04/05 06:48:57;;;;;;;15.17;8.13;;;10.30;99.90;;;;;;4991481;28;20185;-86
2022/04/05 06:51:24;;;;;;;16.97;10.03;;;10.30;99.90;;;;;;4991740;28;20181;-86
2022/04/05 06:53:50;;;;;;;16.77;9.17;;;10.30;99.90;;;;;;4992048;28;20210;-86
2022/04/05 06:56:16;;;;;;;13.60;8.27;;;10.40;99.90;;;;;;4991567;28;20512;-86
2022/04/05 06:58:41;;;;;;;16.03;8.83;;;10.30;99.90;;;;;;4991161;28;20217;-86
2022/04/05 07:01:09;;;;;;;15.60;8.80;;;10.30;99.90;;;;;;4991546;28;20185;-85
2022/04/05 07:03:34;;;;;;;17.20;8.30;;;10.40;99.90;;;;;;4992823;28;20200;-85
2022/04/05 07:06:00;;;;;;;15.60;8.77;;;10.40;99.90;;;;;;4991527;28;20421;-86
2022/04/05 07:08:25;;;;;;;15.03;9.47;;;10.30;99.90;;;;;;4991026;28;20192;-86
2022/04/05 07:10:51;;;;;;;16.90;8.90;;;10.30;99.90;;;;;;4991429;28;20186;-85
2022/04/05 07:13:17;;;;;;;14.77;8.53;;;10.40;99.90;;;;;;4992662;28;20208;-86
2022/04/05 07:15:43;;;;;;;13.50;7.53;;;10.40;99.90;;;;;;4991575;28;20181;-86
2022/04/05 07:18:09;;;;;;;16.43;8.90;;;10.40;99.90;;;;;;4990935;28;20217;-86
2022/04/05 07:20:34;;;;;;;15.70;8.30;;;10.50;99.90;;;;;;4991482;28;20515;-86
2022/04/05 07:23:00;;;;;;;14.53;8.50;;;10.50;99.90;;;;;;4991233;28;20256;-87
2022/04/05 07:25:26;;;;;;;15.20;7.40;;;10.50;99.90;;;;;;4991563;28;20637;-86
2022/04/05 07:27:52;;;;;;;12.70;7.20;;;10.40;99.90;;;;;;4991094;28;20191;-85
2022/04/05 07:30:19;;;;;;;14.53;6.30;;;10.50;99.90;;;;;;4991412;28;20421;-86
2022/04/05 07:32:46;;;;;;;11.27;7.27;;;10.60;99.90;;;;;;4991390;28;20789;-86
2022/04/05 07:35:13;;;;;;;12.77;7.03;;;10.60;99.90;;;;;;4991797;28;20793;-86
2022/04/05 07:37:41;;;;;;;13.07;7.73;;;10.60;99.90;;;;;;4991479;28;20473;-85
2022/04/05 07:40:11;;;;;;;10.37;6.77;;;10.60;99.90;;;;;;4995233;28;20420;-86
2022/04/05 07:42:37;;;;;;;11.43;6.43;;;10.60;99.90;;;;;;4995106;28;20444;-85
2022/04/05 07:45:04;;;;;;;10.23;5.90;;;10.50;99.90;;;;;;4995127;28;20831;-85
2022/04/05 07:47:30;;;;;;;11.17;6.53;;;10.50;99.90;;;;;;4995754;28;20416;-86
2022/04/05 07:49:55;;;;;;;11.60;5.83;;;10.50;99.90;;;;;;4994872;28;20857;-86
2022/04/05 07:52:21;;;;;;;11.20;6.30;;;10.50;99.90;;;;;;4994935;28;20265;-85
2022/04/05 07:54:47;;;;;;;13.07;7.00;;;10.50;99.90;;;;;;4994886;28;20181;-85
2022/04/05 07:57:13;;;;;;;11.73;6.30;;;10.50;99.90;;;;;;4994339;28;20209;-85
2022/04/05 07:59:40;;;;;;;11.90;6.80;;;10.50;99.90;;;;;;4994799;28;20181;-85
2022/04/05 08:02:06;;;;;;;11.60;7.43;;;10.60;99.90;;;;;;4995936;28;20454;-85
2022/04/05 08:04:32;;;;;;;13.00;6.90;;;10.60;99.90;;;;;;4994529;28;20523;-85
2022/04/05 08:06:58;;;;;;;14.90;6.70;;;10.60;99.90;;;;;;4994506;28;20498;-85
2022/04/05 08:09:23;;;;;;;13.27;6.87;;;10.70;99.90;;;;;;4995940;28;20179;-85
2022/04/05 08:11:49;;;;;;;10.50;6.40;;;10.80;99.90;;;;;;4994449;28;20195;-85
2022/04/05 08:14:15;;;;;;;10.50;6.23;;;10.90;99.90;;;;;;4995750;28;20209;-85
2022/04/05 08:16:40;;;;;;;15.13;7.83;;;10.90;99.90;;;;;;4994059;28;20185;-85
2022/04/05 08:19:06;;;;;;;13.17;7.33;;;11.00;99.90;;;;;;4994508;28;20848;-84
2022/04/05 08:21:33;;;;;;;13.50;8.63;;;11.00;99.90;;;;;;4994346;28;20180;-85
2022/04/05 08:23:59;;;;;;;15.07;8.27;;;11.00;99.90;;;;;;4994254;28;20647;-85
2022/04/05 08:26:25;;;;;;;13.07;8.07;;;11.10;99.90;;;;;;4994047;28;20453;-84
2022/04/05 08:28:50;;;;;;;15.30;9.10;;;11.10;99.90;;;;;;4994025;28;20480;-85
2022/04/05 08:31:19;;;;;;;16.03;9.13;;;11.20;99.90;;;;;;4993705;28;20428;-86
2022/04/05 08:33:45;;;;;;;15.30;10.13;;;11.20;99.90;;;;;;4993932;28;20206;-84
2022/04/05 08:36:10;;;;;;;16.43;10.20;;;11.30;99.90;;;;;;4995312;28;20456;-85
2022/04/05 08:38:36;;;;;;;13.13;9.50;;;11.50;99.90;;;;;;4994742;28;20205;-85
2022/04/05 08:41:04;;;;;;;15.30;9.53;;;11.60;99.90;;;;;;4993694;28;20602;-84
2022/04/05 08:43:30;;;;;;;16.57;9.37;;;11.60;99.90;;;;;;5007583;28;20214;-85
2022/04/05 08:46:01;;;;;;;14.80;8.77;;;11.70;99.90;;;;;;5009373;28;20434;-84
2022/04/05 08:48:29;;;;;;;12.60;8.53;;;11.80;99.90;;;;;;4992773;28;20566;-85
2022/04/05 08:50:56;;;;;;;14.23;9.57;;;11.90;99.90;;;;;;4993795;28;20420;-86
2022/04/05 08:53:23;;;;;;;15.60;10.10;;;11.80;99.90;;;;;;4993439;28;20502;-84
2022/04/05 08:55:48;;;;;;;14.10;9.37;;;11.90;99.90;;;;;;4993651;28;20425;-84
2022/04/05 08:58:14;;;;;;;15.30;9.20;;;11.90;99.90;;;;;;4992763;28;20559;-84
2022/04/05 09:00:41;;;;;;;15.67;10.50;;;11.80;99.90;;;;;;4995159;28;20236;-85
2022/04/05 09:03:06;;;;;;;15.50;10.83;;;11.80;99.90;;;;;;4993438;28;20449;-85
2022/04/05 09:05:36;;;;;;;17.20;9.53;;;11.80;99.90;;;;;;4994615;28;20417;-84
2022/04/05 09:08:23;;;;;;;16.90;11.37;;;11.80;99.90;;;;;;4994129;28;20198;-85
2022/04/05 09:10:54;;;;;;;16.77;9.93;;;11.70;99.90;;;;;;4992777;28;20444;-84
2022/04/05 09:13:23;;;;;;;18.30;11.13;;;11.80;99.90;;;;;;4994301;28;20433;-85
2022/04/05 09:15:51;;;;;;;15.07;10.10;;;11.80;99.90;;;;;;4994540;28;20423;-83
2022/04/05 09:18:34;;;;;;;18.53;10.70;;;11.70;99.90;;;;;;4993962;28;20809;-86
2022/04/05 09:21:01;;;;;;;20.33;10.53;;;11.50;99.90;;;;;;4993034;28;20432;-88
2022/04/05 09:23:33;;;;;;;21.20;12.60;;;11.50;99.90;;;;;;4993926;28;20465;-84
2022/04/05 09:26:04;;;;;;;18.57;12.20;;;11.40;99.90;;;;;;4994179;28;20606;-84
2022/04/05 09:28:32;;;;;;;20.23;11.60;;;11.40;99.90;;;;;;4993361;28;20401;-84
2022/04/05 09:31:00;;;;;;;20.33;12.03;;;11.30;99.90;;;;;;4992946;28;20483;-85
2022/04/05 09:33:29;;;;;;;18.53;12.50;;;11.20;99.90;;;;;;4992660;28;21001;-85
2022/04/05 09:36:23;;;;;;;18.90;11.90;;;11.10;99.90;;;;;;4993725;28;20436;-84
2022/04/05 09:38:48;;;;;;;19.40;12.13;;;11.10;99.90;;;;;;4991063;28;20503;-86
2022/04/05 09:41:22;;;;;;;18.80;11.20;;;11.10;99.90;;;;;;4993900;28;20428;-85
2022/04/05 09:43:56;;;;;;;19.20;11.40;;;11.00;99.90;;;;;;4992431;28;20216;-85
2022/04/05 09:46:22;;;;;;;19.10;11.73;;;11.00;99.90;;;;;;4992351;28;20425;-85
2022/04/05 09:48:59;;;;;;;18.83;10.67;;;11.00;99.90;;;;;;4992434;28;20782;-86
2022/04/05 09:51:25;;;;;;;17.47;11.70;;;10.90;99.90;;;;;;4992547;28;20424;-85
2022/04/05 09:53:54;;;;;;;22.60;11.43;;;11.00;99.90;;;;;;4992561;28;20463;-86
2022/04/05 09:56:26;;;;;;;21.60;12.20;;;11.10;99.90;;;;;;4992113;28;20190;-86
2022/04/05 09:58:52;;;;;;;22.07;12.73;;;11.30;99.90;;;;;;4992618;28;20468;-86
2022/04/05 10:01:20;;;;;;;17.60;11.10;;;11.50;99.90;;;;;;4991757;28;20998;-85
2022/04/05 10:03:59;;;;;;;18.77;12.17;;;11.80;99.90;;;;;;4992502;28;20243;-84
2022/04/05 10:06:26;;;;;;;19.00;12.10;;;12.30;99.90;;;;;;4992038;28;21012;-83
2022/04/05 10:08:53;;;;;;;19.23;10.90;;;12.80;99.90;;;;;;4993846;28;20432;-84
2022/04/05 10:11:20;;;;;;;17.63;11.60;;;13.00;99.90;;;;;;4994256;28;20900;-83
2022/04/05 10:13:45;;;;;;;15.80;10.50;;;13.50;99.90;;;;;;4993261;28;20432;-85
2022/04/05 10:16:13;;;;;;;15.73;10.20;;;13.70;99.90;;;;;;4993249;28;20432;-85
2022/04/05 10:18:39;;;;;;;14.23;10.20;;;14.20;99.90;;;;;;4991530;28;20244;-85
2022/04/05 10:21:05;;;;;;;12.13;8.17;;;14.40;99.90;;;;;;4991812;28;20417;-85
2022/04/05 10:23:32;;;;;;;11.60;7.80;;;14.30;99.90;;;;;;4991144;28;20312;-84
2022/04/05 10:25:58;;;;;;;11.73;7.73;;;14.10;99.90;;;;;;4991768;28;20559;-83
2022/04/05 10:28:34;;;;;;;11.20;7.90;;;14.10;99.90;;;;;;4991142;28;20429;-84
2022/04/05 10:31:29;;;;;;;10.90;7.53;;;14.00;99.90;;;;;;4991685;28;20428;-84
2022/04/05 10:34:16;;;;;;;10.60;7.97;;;14.00;99.90;;;;;;4991680;28;20453;-84
2022/04/05 10:37:05;;;;;;;10.77;7.33;;;14.10;99.90;;;;;;4990728;28;20425;-84
2022/04/05 10:39:30;;;;;;;9.43;7.57;;;14.30;99.90;;;;;;4993635;28;20405;-83
2022/04/05 10:42:08;;;;;;;10.43;6.77;;;14.50;99.90;;;;;;4991636;28;20424;-84
2022/04/05 10:44:35;;;;;;;9.60;6.67;;;14.30;99.90;;;;;;4993469;28;20247;-83
2022/04/05 10:47:04;;;;;;;11.37;7.03;;;14.70;99.90;;;;;;4992049;28;20460;-83
2022/04/05 10:49:37;;;;;;;9.03;7.63;;;14.90;99.90;;;;;;4991250;28;20429;-83
2022/04/05 10:52:07;;;;;;;9.10;6.90;;;15.00;99.90;;;;;;4992614;28;20495;-83
2022/04/05 10:54:39;;;;;;;9.80;6.90;;;15.00;99.90;;;;;;4992687;28;20440;-89
2022/04/05 10:57:18;;;;;;;8.60;6.67;;;14.60;99.90;;;;;;4990470;28;20499;-85
2022/04/05 10:59:53;;;;;;;11.80;7.40;;;14.50;99.90;;;;;;4992536;28;20923;-84
2022/04/05 11:02:36;;;;;;;10.33;6.93;;;14.30;99.90;;;;;;4992458;28;20503;-84
2022/04/05 11:05:18;;;;;;;11.17;8.10;;;14.20;99.90;;;;;;4992675;28;20508;-84
2022/04/05 11:07:59;;;;;;;10.87;8.60;;;14.60;99.90;;;;;;4991873;28;20405;-85
2022/04/05 11:10:30;;;;;;;10.03;7.67;;;14.90;99.90;;;;;;4992866;28;20428;-85
2022/04/05 11:13:07;;;;;;;10.50;7.43;;;15.00;99.90;;;;;;4994491;28;20831;-85
2022/04/05 11:15:45;;;;;;;10.33;7.83;;;14.70;99.90;;;;;;4995481;28;20523;-84
2022/04/05 11:18:15;;;;;;;9.37;7.30;;;14.80;99.90;;;;;;4995853;28;20448;-86
2022/04/05 11:20:42;;;;;;;8.90;6.57;;;14.50;99.90;;;;;;4995333;28;20431;-83
2022/04/05 11:23:08;;;;;;;8.60;6.57;;;14.40;99.90;;;;;;4996440;28;20456;-83
2022/04/05 11:25:35;;;;;;;10.93;8.30;;;14.10;99.90;;;;;;4994943;28;20436;-82
2022/04/05 11:28:12;;;;;;;8.40;6.80;;;13.80;99.90;;;;;;4994705;28;20856;-84
2022/04/05 11:30:55;;;;;;;9.00;6.53;;;13.80;99.90;;;;;;4995185;28;20428;-83
2022/04/05 11:33:33;;;;;;;9.27;6.37;;;13.60;99.90;;;;;;4996602;28;20451;-83
2022/04/05 11:36:01;;;;;;;9.10;6.60;;;13.50;99.90;;;;;;4995148;28;20455;-83
2022/04/05 11:38:29;;;;;;;9.90;7.50;;;13.40;99.90;;;;;;4995735;28;20464;-84
2022/04/05 11:40:58;;;;;;;11.77;7.83;;;13.30;99.90;;;;;;4996292;28;20425;-82
2022/04/05 11:43:28;;;;;;;10.87;6.87;;;13.30;99.90;;;;;;4994726;28;20607;-83
2022/04/05 11:46:03;;;;;;;10.07;6.73;;;13.50;99.90;;;;;;4996110;28;20441;-84
2022/04/05 11:48:29;;;;;;;7.40;5.20;;;13.50;99.90;;;;;;4994393;28;20515;-84
2022/04/05 11:50:59;;;;;;;9.93;5.83;;;13.50;99.90;;;;;;4996122;28;20421;-83
2022/04/05 11:53:25;;;;;;;10.47;6.87;;;13.50;99.90;;;;;;4994792;28;20507;-83
2022/04/05 11:56:22;;;;;;;8.53;6.07;;;13.50;99.90;;;;;;4994925;28;20503;-83
2022/04/05 11:58:51;;;;;;;7.53;5.37;;;13.50;99.90;;;;;;4995923;28;20456;-83
2022/04/05 12:01:28;;;;;;;9.00;6.53;;;13.50;99.90;;;;;;4995844;28;20416;-84
2022/04/05 12:03:55;;;;;;;8.93;6.60;;;13.50;99.90;;;;;;4994678;28;20969;-84
2022/04/05 12:06:29;;;;;;;10.57;6.70;;;13.40;99.90;;;;;;4994452;28;20463;-83
2022/04/05 12:08:57;;;;;;;7.43;6.40;;;13.50;99.90;;;;;;4995864;28;20496;-83
2022/04/05 12:11:27;;;;;;;9.07;6.07;;;13.60;99.90;;;;;;4998820;28;20473;-83
2022/04/05 12:14:04;;;;;;;7.40;5.63;;;13.60;99.90;;;;;;5013805;28;20447;-84
2022/04/05 12:16:46;;;;;;;10.13;7.40;;;13.70;99.90;;;;;;5013857;28;20480;-83
2022/04/05 12:19:23;;;;;;;7.43;5.83;;;13.70;99.90;;;;;;5013950;28;20827;-82
2022/04/05 12:21:56;;;;;;;8.17;6.13;;;13.70;99.90;;;;;;5010843;28;20431;-83
2022/04/05 12:24:22;;;;;;;10.40;6.37;;;13.70;99.90;;;;;;5004353;28;20829;-83
2022/04/05 12:26:48;;;;;;;9.63;5.97;;;13.70;99.90;;;;;;5013847;28;20800;-83
2022/04/05 12:29:14;;;;;;;9.50;6.00;;;13.70;99.90;;;;;;5015075;28;20404;-83
2022/04/05 12:31:40;;;;;;;8.70;6.23;;;13.90;99.90;;;;;;5014802;28;20177;-83
2022/04/05 12:34:11;;;;;;;10.20;5.90;;;13.90;99.90;;;;;;5015026;28;20439;-83
2022/04/05 12:36:44;;;;;;;7.60;5.77;;;14.00;99.90;;;;;;4993044;28;20228;-84
2022/04/05 12:39:28;;;;;;;9.20;6.43;;;13.90;99.90;;;;;;4993925;28;20425;-84
2022/04/05 12:41:57;;;;;;;7.80;5.20;;;13.70;99.90;;;;;;4995120;28;20904;-83
2022/04/05 12:44:27;;;;;;;8.63;6.07;;;13.60;99.90;;;;;;5010153;28;20836;-83